sensor_id;sensor_type;location;lat;lon;timestamp;pressure;altitude;pressure_sealevel;temperature;humidity
18900;BME280;9582;52.018;6.306;2023-03-01T00:00:13;103078.63;;;-3.35;100.00
18900;BME280;9582;52.018;6.306;2023-03-01T00:02:40;103090.63;;;-3.34;100.00
18900;BME280;9582;52.018;6.306;2023-03-01T00:05:07;103084.41;;;-3.39;100.00
18900;BME280;9582;52.018;6.306;2023-03-01T00:07:35;103074.91;;;-3.42;100.00
18900;BME280;9582;52.018;6.306;2023-03-01T00:10:01;103072.25;;;-3.43;100.00
18900;BME280;9582;52.018;6.306;2023-03-01T00:12:28;103069.78;;;-3.42;100.00
18900;BME280;9582;52.018;6.306;2023-03-01T00:14:55;103064.81;;;-3.39;100.00
18900;BME280;9582;52.018;6.306;2023-03-01T00:17:21;103068.19;;;-3.40;100.00
18900;BME280;9582;52.018;6.306;2023-03-01T00:19:48;103066.56;;;-3.38;100.00
18900;BME280;9582;52.018;6.306;2023-03-01T00:22:14;103066.78;;;-3.33;100.00
18900;BME280;9582;52.018;6.306;2023-03-01T00:24:42;103073.06;;;-3.27;100.00
18900;BME280;9582;52.018;6.306;2023-03-01T00:27:09;103060.50;;;-3.22;100.00
18900;BME280;9582;52.018;6.306;2023-03-01T00:29:35;103058.88;;;-3.20;100.00
18900;BME280;9582;52.018;6.306;2023-03-01T00:32:02;103059.22;;;-3.13;100.00
18900;BME280;9582;52.018;6.306;2023-03-01T00:34:28;103061.00;;;-3.12;100.00
18900;BME280;9582;52.018;6.306;2023-03-01T00:36:55;103054.19;;;-3.11;100.00
18900;BME280;9582;52.018;6.306;2023-03-01T00:39:30;103053.47;;;-3.09;100.00
18900;BME280;9582;52.018;6.306;2023-03-01T00:41:58;103053.53;;;-3.07;100.00
18900;BME280;9582;52.018;6.306;2023-03-01T00:44:25;103055.47;;;-3.02;100.00
18900;BME280;9582;52.018;6.306;2023-03-01T00:46:51;103060.00;;;-2.96;100.00
18900;BME280;9582;52.018;6.306;2023-03-01T00:49:18;103055.91;;;-2.93;100.00
18900;BME280;9582;52.018;6.306;2023-03-01T00:51:44;103052.59;;;-2.90;100.00
18900;BME280;9582;52.018;6.306;2023-03-01T00:54:11;103048.09;;;-2.96;100.00
18900;BME280;9582;52.018;6.306;2023-03-01T00:56:37;103045.69;;;-3.10;100.00
18900;BME280;9582;52.018;6.306;2023-03-01T00:59:05;103044.56;;;-3.17;100.00
18900;BME280;9582;52.018;6.306;2023-03-01T01:01:32;103035.22;;;-3.16;100.00
18900;BME280;9582;52.018;6.306;2023-03-01T01:04:00;103033.03;;;-3.07;100.00
18900;BME280;9582;52.018;6.306;2023-03-01T01:06:28;103039.34;;;-3.01;100.00
18900;BME280;9582;52.018;6.306;2023-03-01T01:08:56;103036.97;;;-2.96;100.00
18900;BME280;9582;52.018;6.306;2023-03-01T01:11:25;103035.53;;;-2.91;100.00
18900;BME280;9582;52.018;6.306;2023-03-01T01:13:52;103033.28;;;-2.83;100.00
18900;BME280;9582;52.018;6.306;2023-03-01T01:16:22;103033.34;;;-2.82;100.00
18900;BME280;9582;52.018;6.306;2023-03-01T01:18:49;103022.19;;;-2.84;100.00
18900;BME280;9582;52.018;6.306;2023-03-01T01:21:18;103013.69;;;-2.83;100.00
18900;BME280;9582;52.018;6.306;2023-03-01T01:23:45;103011.28;;;-2.80;100.00
18900;BME280;9582;52.018;6.306;2023-03-01T01:26:14;103012.22;;;-2.78;100.00
18900;BME280;9582;52.018;6.306;2023-03-01T01:28:41;103009.66;;;-2.78;100.00
18900;BME280;9582;52.018;6.306;2023-03-01T01:31:07;103019.41;;;-2.88;100.00
18900;BME280;9582;52.018;6.306;2023-03-01T01:33:36;103014.41;;;-3.05;100.00
18900;BME280;9582;52.018;6.306;2023-03-01T01:36:04;103005.00;;;-3.23;100.00
18900;BME280;9582;52.018;6.306;2023-03-01T01:38:30;103008.84;;;-3.51;100.00
18900;BME280;9582;52.018;6.306;2023-03-01T01:40:57;103006.50;;;-3.64;100.00
18900;BME280;9582;52.018;6.306;2023-03-01T01:43:26;103010.75;;;-3.64;100.00
18900;BME280;9582;52.018;6.306;2023-03-01T01:45:54;103013.06;;;-3.69;100.00
18900;BME280;9582;52.018;6.306;2023-03-01T01:48:24;103024.91;;;-3.88;100.00
18900;BME280;9582;52.018;6.306;2023-03-01T01:50:57;103025.75;;;-4.05;100.00
18900;BME280;9582;52.018;6.306;2023-03-01T01:53:25;103016.81;;;-4.14;100.00
18900;BME280;9582;52.018;6.306;2023-03-01T01:55:54;103020.00;;;-4.18;100.00
18900;BME280;9582;52.018;6.306;2023-03-01T01:58:23;103017.56;;;-4.16;100.00
18900;BME280;9582;52.018;6.306;2023-03-01T02:00:50;103013.47;;;-4.13;100.00
18900;BME280;9582;52.018;6.306;2023-03-01T02:03:22;103016.09;;;-4.11;100.00
18900;BME280;9582;52.018;6.306;2023-03-01T02:05:55;103016.41;;;-4.05;100.00
18900;BME280;9582;52.018;6.306;2023-03-01T02:08:26;103010.50;;;-3.86;100.00
18900;BME280;9582;52.018;6.306;2023-03-01T02:10:54;103005.41;;;-3.69;100.00
18900;BME280;9582;52.018;6.306;2023-03-01T02:13:22;103004.09;;;-3.61;100.00
18900;BME280;9582;52.018;6.306;2023-03-01T02:15:49;103003.16;;;-3.63;100.00
18900;BME280;9582;52.018;6.306;2023-03-01T02:18:18;103004.53;;;-3.52;100.00
18900;BME280;9582;52.018;6.306;2023-03-01T02:20:57;102997.59;;;-3.36;100.00
18900;BME280;9582;52.018;6.306;2023-03-01T02:23:28;103003.09;;;-3.27;100.00
18900;BME280;9582;52.018;6.306;2023-03-01T02:25:58;102994.72;;;-3.25;100.00
18900;BME280;9582;52.018;6.306;2023-03-01T02:28:30;102992.88;;;-3.27;100.00
18900;BME280;9582;52.018;6.306;2023-03-01T02:30:57;102989.22;;;-3.32;100.00
18900;BME280;9582;52.018;6.306;2023-03-01T02:33:41;102992.63;;;-3.33;100.00
18900;BME280;9582;52.018;6.306;2023-03-01T02:36:11;102989.31;;;-3.31;100.00
18900;BME280;9582;52.018;6.306;2023-03-01T02:38:40;102989.38;;;-3.29;100.00
18900;BME280;9582;52.018;6.306;2023-03-01T02:41:08;102984.25;;;-3.29;100.00
18900;BME280;9582;52.018;6.306;2023-03-01T02:43:38;102987.69;;;-3.29;100.00
18900;BME280;9582;52.018;6.306;2023-03-01T02:46:07;102985.88;;;-3.31;100.00
18900;BME280;9582;52.018;6.306;2023-03-01T02:48:42;102979.09;;;-3.31;100.00
18900;BME280;9582;52.018;6.306;2023-03-01T02:51:19;102982.53;;;-3.30;100.00
18900;BME280;9582;52.018;6.306;2023-03-01T02:53:56;102978.25;;;-3.30;100.00
18900;BME280;9582;52.018;6.306;2023-03-01T02:56:25;102972.53;;;-3.24;100.00
18900;BME280;9582;52.018;6.306;2023-03-01T02:58:53;102968.59;;;-3.18;100.00
18900;BME280;9582;52.018;6.306;2023-03-01T03:01:21;102978.97;;;-3.15;100.00
18900;BME280;9582;52.018;6.306;2023-03-01T03:03:48;102973.91;;;-3.13;100.00
18900;BME280;9582;52.018;6.306;2023-03-01T03:06:15;102967.84;;;-3.15;100.00
18900;BME280;9582;52.018;6.306;2023-03-01T03:08:41;102972.03;;;-3.17;100.00
18900;BME280;9582;52.018;6.306;2023-03-01T03:11:09;102965.84;;;-3.22;100.00
18900;BME280;9582;52.018;6.306;2023-03-01T03:13:35;102972.50;;;-3.26;100.00
18900;BME280;9582;52.018;6.306;2023-03-01T03:16:04;102975.50;;;-3.34;100.00
18900;BME280;9582;52.018;6.306;2023-03-01T03:18:31;102966.47;;;-3.45;100.00
18900;BME280;9582;52.018;6.306;2023-03-01T03:20:57;102966.13;;;-3.53;100.00
18900;BME280;9582;52.018;6.306;2023-03-01T03:23:24;102969.97;;;-3.61;100.00
18900;BME280;9582;52.018;6.306;2023-03-01T03:25:51;102963.72;;;-3.68;100.00
18900;BME280;9582;52.018;6.306;2023-03-01T03:28:18;102965.97;;;-3.74;100.00
18900;BME280;9582;52.018;6.306;2023-03-01T03:30:45;102963.06;;;-3.81;100.00
18900;BME280;9582;52.018;6.306;2023-03-01T03:33:13;102962.69;;;-3.89;100.00
18900;BME280;9582;52.018;6.306;2023-03-01T03:35:41;102974.78;;;-4.02;100.00
18900;BME280;9582;52.018;6.306;2023-03-01T03:38:10;102975.16;;;-4.13;100.00
18900;BME280;9582;52.018;6.306;2023-03-01T03:40:43;102970.47;;;-4.21;100.00
18900;BME280;9582;52.018;6.306;2023-03-01T03:43:12;102974.34;;;-4.29;100.00
18900;BME280;9582;52.018;6.306;2023-03-01T03:45:38;102969.69;;;-4.36;100.00
18900;BME280;9582;52.018;6.306;2023-03-01T03:48:07;102970.38;;;-4.40;100.00
18900;BME280;9582;52.018;6.306;2023-03-01T03:50:36;102968.59;;;-4.41;100.00
18900;BME280;9582;52.018;6.306;2023-03-01T03:53:05;102960.00;;;-4.43;100.00
18900;BME280;9582;52.018;6.306;2023-03-01T03:55:32;102961.72;;;-4.42;100.00
18900;BME280;9582;52.018;6.306;2023-03-01T03:58:00;102966.06;;;-4.41;100.00
18900;BME280;9582;52.018;6.306;2023-03-01T04:00:32;102967.72;;;-4.42;100.00
18900;BME280;9582;52.018;6.306;2023-03-01T04:02:59;102961.56;;;-4.45;100.00
18900;BME280;9582;52.018;6.306;2023-03-01T04:05:27;102960.56;;;-4.49;100.00
18900;BME280;9582;52.018;6.306;2023-03-01T04:07:55;102956.16;;;-4.51;100.00
18900;BME280;9582;52.018;6.306;2023-03-01T04:10:33;102951.94;;;-4.51;100.00
18900;BME280;9582;52.018;6.306;2023-03-01T04:13:00;102953.34;;;-4.40;100.00
18900;BME280;9582;52.018;6.306;2023-03-01T04:15:27;102949.06;;;-4.23;100.00
18900;BME280;9582;52.018;6.306;2023-03-01T04:17:55;102961.19;;;-4.19;100.00
18900;BME280;9582;52.018;6.306;2023-03-01T04:20:23;102959.28;;;-4.23;100.00
18900;BME280;9582;52.018;6.306;2023-03-01T04:22:51;102955.47;;;-4.31;100.00
18900;BME280;9582;52.018;6.306;2023-03-01T04:25:19;102950.38;;;-4.31;100.00
18900;BME280;9582;52.018;6.306;2023-03-01T04:27:46;102955.31;;;-4.34;100.00
18900;BME280;9582;52.018;6.306;2023-03-01T04:30:13;102954.38;;;-4.36;100.00
18900;BME280;9582;52.018;6.306;2023-03-01T04:32:40;102951.03;;;-4.35;100.00
18900;BME280;9582;52.018;6.306;2023-03-01T04:35:07;102942.81;;;-4.30;100.00
18900;BME280;9582;52.018;6.306;2023-03-01T04:37:34;102938.00;;;-4.24;100.00
18900;BME280;9582;52.018;6.306;2023-03-01T04:40:01;102936.28;;;-4.23;100.00
18900;BME280;9582;52.018;6.306;2023-03-01T04:42:38;102937.31;;;-4.20;100.00
18900;BME280;9582;52.018;6.306;2023-03-01T04:45:06;102938.28;;;-4.18;100.00
18900;BME280;9582;52.018;6.306;2023-03-01T04:47:38;102938.56;;;-4.12;100.00
18900;BME280;9582;52.018;6.306;2023-03-01T04:50:06;102938.56;;;-4.12;100.00
18900;BME280;9582;52.018;6.306;2023-03-01T04:52:33;102935.88;;;-4.15;100.00
18900;BME280;9582;52.018;6.306;2023-03-01T04:55:00;102928.06;;;-4.18;100.00
18900;BME280;9582;52.018;6.306;2023-03-01T04:57:27;102922.88;;;-4.19;100.00
18900;BME280;9582;52.018;6.306;2023-03-01T04:59:54;102911.00;;;-4.19;100.00
18900;BME280;9582;52.018;6.306;2023-03-01T05:02:21;102919.00;;;-4.11;100.00
18900;BME280;9582;52.018;6.306;2023-03-01T05:04:48;102917.41;;;-4.09;100.00
18900;BME280;9582;52.018;6.306;2023-03-01T05:07:14;102913.03;;;-4.12;100.00
18900;BME280;9582;52.018;6.306;2023-03-01T05:09:44;102911.34;;;-4.11;100.00
18900;BME280;9582;52.018;6.306;2023-03-01T05:12:11;102908.78;;;-4.11;100.00
18900;BME280;9582;52.018;6.306;2023-03-01T05:14:37;102907.19;;;-4.09;100.00
18900;BME280;9582;52.018;6.306;2023-03-01T05:17:06;102899.47;;;-4.11;100.00
18900;BME280;9582;52.018;6.306;2023-03-01T05:19:32;102894.19;;;-4.14;100.00
18900;BME280;9582;52.018;6.306;2023-03-01T05:21:59;102901.97;;;-4.12;100.00
18900;BME280;9582;52.018;6.306;2023-03-01T05:24:30;102891.84;;;-4.09;100.00
18900;BME280;9582;52.018;6.306;2023-03-01T05:26:58;102888.38;;;-4.11;100.00
18900;BME280;9582;52.018;6.306;2023-03-01T05:29:25;102886.34;;;-4.18;100.00
18900;BME280;9582;52.018;6.306;2023-03-01T05:31:53;102887.69;;;-4.25;100.00
18900;BME280;9582;52.018;6.306;2023-03-01T05:34:24;102890.09;;;-4.28;100.00
18900;BME280;9582;52.018;6.306;2023-03-01T05:36:51;102887.41;;;-4.31;100.00
18900;BME280;9582;52.018;6.306;2023-03-01T05:39:19;102888.72;;;-4.39;100.00
18900;BME280;9582;52.018;6.306;2023-03-01T05:41:46;102882.84;;;-4.54;100.00
18900;BME280;9582;52.018;6.306;2023-03-01T05:44:13;102882.25;;;-4.66;100.00
18900;BME280;9582;52.018;6.306;2023-03-01T05:46:40;102877.72;;;-4.72;100.00
18900;BME280;9582;52.018;6.306;2023-03-01T05:49:06;102873.41;;;-4.73;100.00
18900;BME280;9582;52.018;6.306;2023-03-01T05:51:34;102865.13;;;-4.69;100.00
18900;BME280;9582;52.018;6.306;2023-03-01T05:54:00;102867.16;;;-4.61;100.00
18900;BME280;9582;52.018;6.306;2023-03-01T05:56:27;102874.47;;;-4.51;100.00
18900;BME280;9582;52.018;6.306;2023-03-01T05:58:54;102868.88;;;-4.44;100.00
18900;BME280;9582;52.018;6.306;2023-03-01T06:01:20;102883.53;;;-4.40;100.00
18900;BME280;9582;52.018;6.306;2023-03-01T06:03:47;102885.13;;;-4.42;100.00
18900;BME280;9582;52.018;6.306;2023-03-01T06:06:13;102875.75;;;-4.43;100.00
18900;BME280;9582;52.018;6.306;2023-03-01T06:08:41;102876.59;;;-4.43;100.00
18900;BME280;9582;52.018;6.306;2023-03-01T06:11:09;102885.13;;;-4.42;100.00
18900;BME280;9582;52.018;6.306;2023-03-01T06:13:36;102886.75;;;-4.44;100.00
18900;BME280;9582;52.018;6.306;2023-03-01T06:16:04;102891.69;;;-4.47;100.00
18900;BME280;9582;52.018;6.306;2023-03-01T06:18:31;102894.25;;;-4.47;100.00
18900;BME280;9582;52.018;6.306;2023-03-01T06:20:58;102895.03;;;-4.48;100.00
18900;BME280;9582;52.018;6.306;2023-03-01T06:23:24;102891.69;;;-4.47;100.00
18900;BME280;9582;52.018;6.306;2023-03-01T06:25:52;102889.13;;;-4.47;100.00
18900;BME280;9582;52.018;6.306;2023-03-01T06:28:19;102894.47;;;-4.43;100.00
18900;BME280;9582;52.018;6.306;2023-03-01T06:30:45;102881.94;;;-4.38;100.00
18900;BME280;9582;52.018;6.306;2023-03-01T06:33:12;102884.94;;;-4.29;100.00
18900;BME280;9582;52.018;6.306;2023-03-01T06:35:38;102892.38;;;-4.16;100.00
18900;BME280;9582;52.018;6.306;2023-03-01T06:38:05;102892.88;;;-4.05;100.00
18900;BME280;9582;52.018;6.306;2023-03-01T06:40:32;102889.84;;;-3.98;100.00
18900;BME280;9582;52.018;6.306;2023-03-01T06:43:01;102896.91;;;-3.93;100.00
18900;BME280;9582;52.018;6.306;2023-03-01T06:45:28;102888.50;;;-3.90;100.00
18900;BME280;9582;52.018;6.306;2023-03-01T06:48:01;102892.88;;;-3.88;100.00
18900;BME280;9582;52.018;6.306;2023-03-01T06:50:28;102885.13;;;-3.89;100.00
18900;BME280;9582;52.018;6.306;2023-03-01T06:52:55;102882.22;;;-3.97;100.00
18900;BME280;9582;52.018;6.306;2023-03-01T06:55:22;102888.59;;;-4.06;100.00
18900;BME280;9582;52.018;6.306;2023-03-01T06:57:48;102883.25;;;-4.11;100.00
18900;BME280;9582;52.018;6.306;2023-03-01T07:00:17;102884.06;;;-4.12;100.00
18900;BME280;9582;52.018;6.306;2023-03-01T07:02:44;102878.59;;;-4.02;100.00
18900;BME280;9582;52.018;6.306;2023-03-01T07:05:10;102882.50;;;-3.91;100.00
18900;BME280;9582;52.018;6.306;2023-03-01T07:07:37;102878.28;;;-3.73;100.00
18900;BME280;9582;52.018;6.306;2023-03-01T07:10:04;102887.44;;;-3.59;100.00
18900;BME280;9582;52.018;6.306;2023-03-01T07:12:31;102879.44;;;-3.47;100.00
18900;BME280;9582;52.018;6.306;2023-03-01T07:14:57;102879.06;;;-3.37;100.00
18900;BME280;9582;52.018;6.306;2023-03-01T07:17:25;102886.41;;;-3.25;100.00
18900;BME280;9582;52.018;6.306;2023-03-01T07:19:52;102883.50;;;-3.14;100.00
18900;BME280;9582;52.018;6.306;2023-03-01T07:22:18;102884.91;;;-3.01;100.00
18900;BME280;9582;52.018;6.306;2023-03-01T07:24:45;102881.25;;;-2.87;100.00
18900;BME280;9582;52.018;6.306;2023-03-01T07:27:11;102880.00;;;-2.76;100.00
18900;BME280;9582;52.018;6.306;2023-03-01T07:29:38;102881.28;;;-2.66;100.00
18900;BME280;9582;52.018;6.306;2023-03-01T07:32:05;102881.53;;;-2.60;100.00
18900;BME280;9582;52.018;6.306;2023-03-01T07:34:34;102883.41;;;-2.56;100.00
18900;BME280;9582;52.018;6.306;2023-03-01T07:37:00;102887.03;;;-2.51;100.00
18900;BME280;9582;52.018;6.306;2023-03-01T07:39:27;102890.72;;;-2.45;100.00
18900;BME280;9582;52.018;6.306;2023-03-01T07:41:53;102889.34;;;-2.37;100.00
18900;BME280;9582;52.018;6.306;2023-03-01T07:44:21;102887.16;;;-2.27;100.00
18900;BME280;9582;52.018;6.306;2023-03-01T07:46:48;102884.34;;;-2.13;100.00
18900;BME280;9582;52.018;6.306;2023-03-01T07:49:14;102889.97;;;-2.01;100.00
18900;BME280;9582;52.018;6.306;2023-03-01T07:51:42;102871.63;;;-1.89;100.00
18900;BME280;9582;52.018;6.306;2023-03-01T07:54:09;102880.53;;;-1.80;100.00
18900;BME280;9582;52.018;6.306;2023-03-01T07:56:35;102882.63;;;-1.69;100.00
18900;BME280;9582;52.018;6.306;2023-03-01T07:59:02;102888.16;;;-1.59;100.00
18900;BME280;9582;52.018;6.306;2023-03-01T08:01:28;102893.03;;;-1.43;100.00
18900;BME280;9582;52.018;6.306;2023-03-01T08:03:55;102892.78;;;-1.27;100.00
18900;BME280;9582;52.018;6.306;2023-03-01T08:06:21;102888.09;;;-1.14;100.00
18900;BME280;9582;52.018;6.306;2023-03-01T08:08:49;102885.88;;;-1.05;100.00
18900;BME280;9582;52.018;6.306;2023-03-01T08:11:15;102881.16;;;-0.93;100.00
18900;BME280;9582;52.018;6.306;2023-03-01T08:13:43;102885.03;;;-0.81;100.00
18900;BME280;9582;52.018;6.306;2023-03-01T08:16:11;102873.53;;;-0.67;100.00
18900;BME280;9582;52.018;6.306;2023-03-01T08:18:38;102874.81;;;-0.54;100.00
18900;BME280;9582;52.018;6.306;2023-03-01T08:21:06;102881.19;;;-0.43;100.00
18900;BME280;9582;52.018;6.306;2023-03-01T08:23:33;102869.66;;;-0.29;100.00
18900;BME280;9582;52.018;6.306;2023-03-01T08:26:06;102871.00;;;-0.13;100.00
18900;BME280;9582;52.018;6.306;2023-03-01T08:28:33;102867.31;;;0.06;100.00
18900;BME280;9582;52.018;6.306;2023-03-01T08:31:00;102868.63;;;0.20;100.00
18900;BME280;9582;52.018;6.306;2023-03-01T08:33:26;102864.66;;;0.31;100.00
18900;BME280;9582;52.018;6.306;2023-03-01T08:36:02;102866.84;;;0.47;100.00
18900;BME280;9582;52.018;6.306;2023-03-01T08:38:28;102865.44;;;0.58;100.00
18900;BME280;9582;52.018;6.306;2023-03-01T08:40:55;102855.59;;;0.73;100.00
18900;BME280;9582;52.018;6.306;2023-03-01T08:43:22;102857.59;;;0.85;100.00
18900;BME280;9582;52.018;6.306;2023-03-01T08:45:50;102855.34;;;0.95;100.00
18900;BME280;9582;52.018;6.306;2023-03-01T08:48:16;102853.97;;;1.08;100.00
18900;BME280;9582;52.018;6.306;2023-03-01T08:50:42;102855.09;;;1.17;100.00
18900;BME280;9582;52.018;6.306;2023-03-01T08:53:09;102853.50;;;1.23;100.00
18900;BME280;9582;52.018;6.306;2023-03-01T08:55:35;102853.66;;;1.29;100.00
18900;BME280;9582;52.018;6.306;2023-03-01T08:58:02;102850.34;;;1.34;100.00
18900;BME280;9582;52.018;6.306;2023-03-01T09:00:30;102836.91;;;1.46;100.00
18900;BME280;9582;52.018;6.306;2023-03-01T09:02:59;102838.84;;;1.54;100.00
18900;BME280;9582;52.018;6.306;2023-03-01T09:05:26;102838.19;;;1.63;100.00
18900;BME280;9582;52.018;6.306;2023-03-01T09:07:53;102834.16;;;1.74;100.00
18900;BME280;9582;52.018;6.306;2023-03-01T09:10:22;102824.06;;;1.85;100.00
18900;BME280;9582;52.018;6.306;2023-03-01T09:12:48;102826.81;;;1.92;100.00
18900;BME280;9582;52.018;6.306;2023-03-01T09:15:15;102831.38;;;2.02;100.00
18900;BME280;9582;52.018;6.306;2023-03-01T09:17:42;102831.59;;;2.11;100.00
18900;BME280;9582;52.018;6.306;2023-03-01T09:20:10;102830.03;;;2.21;100.00
18900;BME280;9582;52.018;6.306;2023-03-01T09:22:37;102824.25;;;2.31;100.00
18900;BME280;9582;52.018;6.306;2023-03-01T09:25:04;102828.69;;;2.37;100.00
18900;BME280;9582;52.018;6.306;2023-03-01T09:27:31;102821.91;;;2.42;100.00
18900;BME280;9582;52.018;6.306;2023-03-01T09:29:57;102823.72;;;2.47;100.00
18900;BME280;9582;52.018;6.306;2023-03-01T09:32:23;102817.75;;;2.48;100.00
18900;BME280;9582;52.018;6.306;2023-03-01T09:38:39;102807.81;;;2.69;100.00
18900;BME280;9582;52.018;6.306;2023-03-01T09:41:10;102797.56;;;2.74;100.00
18900;BME280;9582;52.018;6.306;2023-03-01T09:43:44;102799.53;;;2.87;100.00
18900;BME280;9582;52.018;6.306;2023-03-01T09:46:13;102795.38;;;2.95;100.00
18900;BME280;9582;52.018;6.306;2023-03-01T09:48:43;102788.50;;;2.96;100.00
18900;BME280;9582;52.018;6.306;2023-03-01T09:51:17;102792.91;;;3.03;100.00
18900;BME280;9582;52.018;6.306;2023-03-01T09:53:46;102793.16;;;3.15;100.00
18900;BME280;9582;52.018;6.306;2023-03-01T09:56:17;102787.91;;;3.12;100.00
18900;BME280;9582;52.018;6.306;2023-03-01T09:58:51;102786.31;;;3.18;100.00
18900;BME280;9582;52.018;6.306;2023-03-01T10:01:29;102791.44;;;3.17;100.00
18900;BME280;9582;52.018;6.306;2023-03-01T10:04:33;102784.69;;;3.23;100.00
18900;BME280;9582;52.018;6.306;2023-03-01T10:07:13;102775.25;;;3.27;100.00
18900;BME280;9582;52.018;6.306;2023-03-01T10:09:44;102777.03;;;3.29;100.00
18900;BME280;9582;52.018;6.306;2023-03-01T10:12:14;102770.22;;;3.36;100.00
18900;BME280;9582;52.018;6.306;2023-03-01T10:14:46;102765.16;;;3.42;100.00
18900;BME280;9582;52.018;6.306;2023-03-01T10:17:25;102769.47;;;3.43;100.00
18900;BME280;9582;52.018;6.306;2023-03-01T10:19:55;102760.00;;;3.43;100.00
18900;BME280;9582;52.018;6.306;2023-03-01T10:22:24;102758.47;;;3.55;100.00
18900;BME280;9582;52.018;6.306;2023-03-01T10:24:57;102743.84;;;3.58;100.00
18900;BME280;9582;52.018;6.306;2023-03-01T10:27:25;102741.28;;;3.60;100.00
18900;BME280;9582;52.018;6.306;2023-03-01T10:29:58;102727.56;;;3.64;100.00
18900;BME280;9582;52.018;6.306;2023-03-01T10:32:28;102733.56;;;3.63;100.00
18900;BME280;9582;52.018;6.306;2023-03-01T10:34:55;102727.50;;;3.62;100.00
18900;BME280;9582;52.018;6.306;2023-03-01T10:37:22;102724.22;;;3.74;100.00
18900;BME280;9582;52.018;6.306;2023-03-01T10:39:56;102727.69;;;3.74;100.00
18900;BME280;9582;52.018;6.306;2023-03-01T10:42:27;102725.19;;;3.80;100.00
18900;BME280;9582;52.018;6.306;2023-03-01T10:44:54;102724.44;;;3.90;100.00
18900;BME280;9582;52.018;6.306;2023-03-01T10:47:23;102722.78;;;3.94;100.00
18900;BME280;9582;52.018;6.306;2023-03-01T10:49:58;102726.88;;;3.78;100.00
18900;BME280;9582;52.018;6.306;2023-03-01T10:52:28;102730.41;;;3.83;100.00
18900;BME280;9582;52.018;6.306;2023-03-01T10:54:58;102727.81;;;3.85;100.00
18900;BME280;9582;52.018;6.306;2023-03-01T10:57:33;102726.25;;;3.96;100.00
18900;BME280;9582;52.018;6.306;2023-03-01T11:00:23;102725.47;;;4.01;100.00
18900;BME280;9582;52.018;6.306;2023-03-01T11:03:01;102727.13;;;3.96;100.00
18900;BME280;9582;52.018;6.306;2023-03-01T11:05:29;102730.75;;;4.09;100.00
18900;BME280;9582;52.018;6.306;2023-03-01T11:08:08;102730.19;;;4.34;100.00
18900;BME280;9582;52.018;6.306;2023-03-01T11:10:36;102722.34;;;4.30;100.00
18900;BME280;9582;52.018;6.306;2023-03-01T11:13:07;102720.66;;;4.32;100.00
18900;BME280;9582;52.018;6.306;2023-03-01T11:15:34;102721.50;;;4.32;100.00
18900;BME280;9582;52.018;6.306;2023-03-01T11:18:02;102727.66;;;4.42;100.00
18900;BME280;9582;52.018;6.306;2023-03-01T11:20:31;102719.00;;;4.37;100.00
18900;BME280;9582;52.018;6.306;2023-03-01T11:23:01;102719.06;;;4.44;100.00
18900;BME280;9582;52.018;6.306;2023-03-01T11:25:31;102718.28;;;4.51;100.00
18900;BME280;9582;52.018;6.306;2023-03-01T11:28:03;102713.94;;;4.52;100.00
18900;BME280;9582;52.018;6.306;2023-03-01T11:30:34;102720.91;;;4.57;100.00
18900;BME280;9582;52.018;6.306;2023-03-01T11:33:11;102710.75;;;4.77;100.00
18900;BME280;9582;52.018;6.306;2023-03-01T11:35:42;102716.06;;;4.91;100.00
18900;BME280;9582;52.018;6.306;2023-03-01T11:38:18;102711.84;;;5.03;100.00
18900;BME280;9582;52.018;6.306;2023-03-01T11:40:47;102704.91;;;5.01;100.00
18900;BME280;9582;52.018;6.306;2023-03-01T11:43:23;102698.84;;;5.00;100.00
18900;BME280;9582;52.018;6.306;2023-03-01T11:46:25;102697.94;;;4.92;100.00
18900;BME280;9582;52.018;6.306;2023-03-01T11:49:03;102691.88;;;4.92;100.00
18900;BME280;9582;52.018;6.306;2023-03-01T11:51:41;102705.72;;;4.97;100.00
18900;BME280;9582;52.018;6.306;2023-03-01T11:54:21;102712.59;;;4.92;100.00
18900;BME280;9582;52.018;6.306;2023-03-01T11:56:55;102706.69;;;5.05;100.00
18900;BME280;9582;52.018;6.306;2023-03-01T11:59:48;102700.59;;;5.03;100.00
18900;BME280;9582;52.018;6.306;2023-03-01T12:02:40;102706.72;;;5.11;100.00
18900;BME280;9582;52.018;6.306;2023-03-01T12:05:22;102705.88;;;5.10;100.00
18900;BME280;9582;52.018;6.306;2023-03-01T12:07:53;102698.13;;;5.13;100.00
18900;BME280;9582;52.018;6.306;2023-03-01T12:10:27;102707.63;;;5.17;100.00
18900;BME280;9582;52.018;6.306;2023-03-01T12:13:09;102687.75;;;5.13;100.00
18900;BME280;9582;52.018;6.306;2023-03-01T12:16:01;102687.75;;;5.18;100.00
18900;BME280;9582;52.018;6.306;2023-03-01T12:18:49;102690.44;;;5.30;100.00
18900;BME280;9582;52.018;6.306;2023-03-01T12:21:28;102693.09;;;5.41;100.00
18900;BME280;9582;52.018;6.306;2023-03-01T12:24:10;102689.66;;;5.43;100.00
18900;BME280;9582;52.018;6.306;2023-03-01T12:26:50;102675.78;;;5.35;100.00
18900;BME280;9582;52.018;6.306;2023-03-01T12:29:25;102680.97;;;5.38;100.00
18900;BME280;9582;52.018;6.306;2023-03-01T12:32:12;102677.47;;;5.30;100.00
18900;BME280;9582;52.018;6.306;2023-03-01T12:34:59;102671.47;;;5.37;100.00
18900;BME280;9582;52.018;6.306;2023-03-01T12:37:38;102663.66;;;5.34;100.00
18900;BME280;9582;52.018;6.306;2023-03-01T12:40:30;102653.28;;;5.37;100.00
18900;BME280;9582;52.018;6.306;2023-03-01T12:43:10;102647.28;;;5.41;100.00
18900;BME280;9582;52.018;6.306;2023-03-01T12:45:48;102645.56;;;5.42;100.00
18900;BME280;9582;52.018;6.306;2023-03-01T12:48:26;102637.78;;;5.43;100.00
18900;BME280;9582;52.018;6.306;2023-03-01T12:50:59;102640.38;;;5.46;100.00
18900;BME280;9582;52.018;6.306;2023-03-01T12:53:30;102640.38;;;5.43;100.00
18900;BME280;9582;52.018;6.306;2023-03-01T12:56:00;102628.28;;;5.47;100.00
18900;BME280;9582;52.018;6.306;2023-03-01T12:58:32;102621.41;;;5.58;100.00
18900;BME280;9582;52.018;6.306;2023-03-01T13:01:04;102622.31;;;5.69;100.00
18900;BME280;9582;52.018;6.306;2023-03-01T13:03:52;102616.22;;;5.62;100.00
18900;BME280;9582;52.018;6.306;2023-03-01T13:06:28;102603.28;;;5.65;100.00
18900;BME280;9582;52.018;6.306;2023-03-01T13:09:06;102605.03;;;5.69;100.00